PBD6509 UWUU-UUEE
Flight info
| Callsign | PBD6509 |
|---|---|
| Flight time | N/A |
| Altitude | 38000 |
| Route | TILMU3N TILMU N985 ORTIM L158 DIMGI DIMGI3F |
| Aircraft | B38M/M-SDE1FGHILORVWXY/HB1 |
Departure
| Time | 2026-04-30 11:40 |
|---|---|
| Airport | Ufa International Airport (UWUU) |
Arrival
| Time | N/A |
|---|---|
| Airport | Sheremetyevo International Airport (UUEE) |
| Time | Latitude | Longitude | Altitude | Speed | Heading |
|---|---|---|---|---|---|
| 2026-04-30 11:16 | 54.56556 | 55.88260 | 452 ft | 0 kts | 60° |
| 2026-04-30 11:25 | 54.56549 | 55.88240 | 452 ft | 2 kts | 60° |
| 2026-04-30 11:26 | 54.56532 | 55.88190 | 452 ft | 2 kts | 60° |
| 2026-04-30 11:26 | 54.56524 | 55.88166 | 452 ft | 2 kts | 61° |
| 2026-04-30 11:26 | 54.56521 | 55.88138 | 452 ft | 2 kts | 103° |
| 2026-04-30 11:27 | 54.56527 | 55.88112 | 452 ft | 2 kts | 125° |
| 2026-04-30 11:27 | 54.56537 | 55.88092 | 452 ft | 1 kts | 142° |
| 2026-04-30 11:27 | 54.56540 | 55.88088 | 452 ft | 0 kts | 146° |
| 2026-04-30 11:29 | 54.56539 | 55.88090 | 452 ft | 1 kts | 148° |
| 2026-04-30 11:30 | 54.56454 | 55.88190 | 452 ft | 15 kts | 128° |
| 2026-04-30 11:30 | 54.56356 | 55.88305 | 452 ft | 19 kts | 151° |
| 2026-04-30 11:30 | 54.56241 | 55.88417 | 452 ft | 19 kts | 150° |
| 2026-04-30 11:31 | 54.56143 | 55.88510 | 452 ft | 18 kts | 151° |
| 2026-04-30 11:31 | 54.56029 | 55.88620 | 452 ft | 20 kts | 151° |
| 2026-04-30 11:31 | 54.55915 | 55.88730 | 452 ft | 18 kts | 151° |
| 2026-04-30 11:31 | 54.55800 | 55.88840 | 452 ft | 19 kts | 151° |
| 2026-04-30 11:32 | 54.55687 | 55.88949 | 452 ft | 19 kts | 150° |
| 2026-04-30 11:32 | 54.55577 | 55.89055 | 452 ft | 18 kts | 151° |
| 2026-04-30 11:32 | 54.55465 | 55.89163 | 452 ft | 19 kts | 150° |
| 2026-04-30 11:33 | 54.55234 | 55.89385 | 452 ft | 19 kts | 151° |
| 2026-04-30 11:33 | 54.55125 | 55.89489 | 452 ft | 18 kts | 150° |
| 2026-04-30 11:33 | 54.55017 | 55.89594 | 452 ft | 16 kts | 150° |
| 2026-04-30 11:33 | 54.54928 | 55.89624 | 452 ft | 12 kts | 208° |
| 2026-04-30 11:34 | 54.54847 | 55.89542 | 452 ft | 15 kts | 211° |
| 2026-04-30 11:34 | 54.54752 | 55.89440 | 453 ft | 17 kts | 220° |
| 2026-04-30 11:34 | 54.54691 | 55.89271 | 453 ft | 18 kts | 250° |
| 2026-04-30 11:34 | 54.54648 | 55.89058 | 452 ft | 20 kts | 251° |
| 2026-04-30 11:35 | 54.54607 | 55.88857 | 452 ft | 18 kts | 250° |
| 2026-04-30 11:35 | 54.54584 | 55.88746 | 452 ft | 0 kts | 251° |
| 2026-04-30 11:36 | 54.54581 | 55.88729 | 452 ft | 3 kts | 251° |
| 2026-04-30 11:36 | 54.54571 | 55.88678 | 452 ft | 6 kts | 251° |
| 2026-04-30 11:36 | 54.54552 | 55.88588 | 452 ft | 10 kts | 250° |
| 2026-04-30 11:36 | 54.54525 | 55.88453 | 452 ft | 14 kts | 251° |
| 2026-04-30 11:37 | 54.54488 | 55.88272 | 452 ft | 18 kts | 250° |
| 2026-04-30 11:37 | 54.54444 | 55.88059 | 452 ft | 18 kts | 251° |
| 2026-04-30 11:37 | 54.54426 | 55.87969 | 452 ft | 0 kts | 251° |
| 2026-04-30 11:38 | 54.54423 | 55.87951 | 452 ft | 4 kts | 251° |
| 2026-04-30 11:38 | 54.54409 | 55.87884 | 453 ft | 8 kts | 251° |
| 2026-04-30 11:38 | 54.54396 | 55.87775 | 453 ft | 9 kts | 281° |
| 2026-04-30 11:38 | 54.54425 | 55.87719 | 453 ft | 8 kts | 327° |
| 2026-04-30 11:39 | 54.54470 | 55.87676 | 454 ft | 0 kts | 330° |
| 2026-04-30 11:39 | 54.54516 | 55.87631 | 455 ft | 34 kts | 330° |
| 2026-04-30 11:39 | 54.54945 | 55.87219 | 452 ft | 104 kts | 330° |
| 2026-04-30 11:40 | 54.55749 | 55.86450 | 453 ft | 158 kts | 326° |
| 2026-04-30 11:40 | 54.56789 | 55.85429 | 665 ft | 184 kts | 331° |
| 2026-04-30 11:40 | 54.57941 | 55.84342 | 1454 ft | 184 kts | 332° |
| 2026-04-30 11:40 | 54.59022 | 55.83343 | 2504 ft | 178 kts | 331° |
| 2026-04-30 11:41 | 54.60192 | 55.82205 | 2977 ft | 205 kts | 330° |
| 2026-04-30 11:41 | 54.61498 | 55.80934 | 3521 ft | 227 kts | 330° |
| 2026-04-30 11:41 | 54.62928 | 55.79547 | 4169 ft | 241 kts | 330° |
| 2026-04-30 11:41 | 54.64384 | 55.78134 | 5187 ft | 240 kts | 330° |
| 2026-04-30 11:42 | 54.65824 | 55.76739 | 6072 ft | 245 kts | 330° |
| 2026-04-30 11:42 | 54.67321 | 55.75286 | 6952 ft | 248 kts | 330° |
| 2026-04-30 11:42 | 54.68861 | 55.73791 | 7653 ft | 261 kts | 330° |
| 2026-04-30 11:42 | 54.70498 | 55.72199 | 8188 ft | 279 kts | 329° |
| 2026-04-30 11:43 | 54.72209 | 55.70534 | 9026 ft | 283 kts | 329° |
| 2026-04-30 11:43 | 54.73946 | 55.68842 | 9831 ft | 290 kts | 328° |
| 2026-04-30 11:43 | 54.75486 | 55.66643 | 9956 ft | 286 kts | 303° |
| 2026-04-30 11:43 | 54.76290 | 55.63564 | 10080 ft | 282 kts | 279° |
| 2026-04-30 11:44 | 54.76533 | 55.60197 | 10115 ft | 282 kts | 274° |
| 2026-04-30 11:44 | 54.76725 | 55.56823 | 10112 ft | 281 kts | 273° |
| 2026-04-30 11:44 | 54.76901 | 55.53449 | 10115 ft | 281 kts | 272° |
| 2026-04-30 11:44 | 54.77067 | 55.50079 | 10120 ft | 281 kts | 272° |
| 2026-04-30 11:45 | 54.77225 | 55.46700 | 10121 ft | 281 kts | 272° |
| 2026-04-30 11:45 | 54.77377 | 55.43334 | 10117 ft | 281 kts | 272° |
| 2026-04-30 11:45 | 54.77527 | 55.39958 | 10116 ft | 281 kts | 272° |
| 2026-04-30 11:45 | 54.77675 | 55.36588 | 10114 ft | 281 kts | 272° |
| 2026-04-30 11:46 | 54.77821 | 55.33211 | 10117 ft | 281 kts | 272° |
| 2026-04-30 11:46 | 54.77967 | 55.29832 | 10117 ft | 281 kts | 272° |
| 2026-04-30 11:46 | 54.78112 | 55.26463 | 10120 ft | 281 kts | 272° |
| 2026-04-30 11:46 | 54.78255 | 55.23092 | 10112 ft | 280 kts | 272° |
| 2026-04-30 11:47 | 54.78397 | 55.19719 | 10117 ft | 280 kts | 272° |
| 2026-04-30 11:47 | 54.78539 | 55.16353 | 10126 ft | 280 kts | 272° |
| 2026-04-30 11:47 | 54.78682 | 55.12978 | 10105 ft | 280 kts | 272° |
| 2026-04-30 11:47 | 54.78820 | 55.09618 | 10112 ft | 280 kts | 272° |
| 2026-04-30 11:48 | 54.78959 | 55.06221 | 10354 ft | 287 kts | 272° |
| 2026-04-30 11:48 | 54.79103 | 55.02679 | 10853 ft | 303 kts | 272° |
| 2026-04-30 11:48 | 54.79253 | 54.98963 | 11433 ft | 315 kts | 272° |
| 2026-04-30 11:48 | 54.79406 | 54.95158 | 12293 ft | 317 kts | 272° |
| 2026-04-30 11:49 | 54.79560 | 54.91309 | 13171 ft | 321 kts | 271° |
| 2026-04-30 11:49 | 54.79703 | 54.87693 | 13997 ft | 324 kts | 271° |
| 2026-04-30 11:49 | 54.79806 | 54.85056 | 14544 ft | 327 kts | 271° |
| 2026-04-30 11:49 | 54.79960 | 54.81105 | 15374 ft | 330 kts | 271° |
| 2026-04-30 11:50 | 54.80114 | 54.77139 | 16211 ft | 333 kts | 270° |
| 2026-04-30 11:50 | 54.80270 | 54.73087 | 17034 ft | 337 kts | 270° |
| 2026-04-30 11:50 | 54.80427 | 54.68965 | 17844 ft | 340 kts | 270° |
| 2026-04-30 11:50 | 54.80582 | 54.64842 | 18588 ft | 344 kts | 269° |
| 2026-04-30 11:51 | 54.80727 | 54.60967 | 19199 ft | 347 kts | 269° |
| 2026-04-30 11:51 | 54.80881 | 54.56834 | 19863 ft | 350 kts | 268° |
| 2026-04-30 11:51 | 54.81036 | 54.52593 | 20519 ft | 353 kts | 268° |
| 2026-04-30 11:51 | 54.81191 | 54.48330 | 21165 ft | 356 kts | 267° |
| 2026-04-30 11:52 | 54.81347 | 54.44013 | 21805 ft | 360 kts | 267° |
| 2026-04-30 11:52 | 54.81502 | 54.39664 | 22444 ft | 362 kts | 266° |
| 2026-04-30 11:52 | 54.81657 | 54.35286 | 23083 ft | 365 kts | 266° |
| 2026-04-30 11:52 | 54.81811 | 54.30874 | 23702 ft | 368 kts | 266° |
| 2026-04-30 11:53 | 54.81965 | 54.26420 | 24216 ft | 371 kts | 266° |
| 2026-04-30 11:53 | 54.82121 | 54.21890 | 24737 ft | 373 kts | 265° |
| 2026-04-30 11:53 | 54.82371 | 54.17377 | 25240 ft | 383 kts | 274° |
| 2026-04-30 11:53 | 54.82830 | 54.14391 | 25603 ft | 387 kts | 277° |
| 2026-04-30 11:54 | 54.83149 | 54.12367 | 25834 ft | 388 kts | 276° |
| 2026-04-30 11:54 | 54.83836 | 54.07873 | 26273 ft | 391 kts | 276° |
| 2026-04-30 11:55 | 54.84538 | 54.03300 | 26752 ft | 394 kts | 276° |
| 2026-04-30 11:55 | 54.85245 | 53.98692 | 27212 ft | 397 kts | 276° |
| 2026-04-30 11:55 | 54.85966 | 53.93988 | 27653 ft | 400 kts | 275° |
| 2026-04-30 11:55 | 54.86673 | 53.89365 | 28092 ft | 403 kts | 275° |
| 2026-04-30 11:56 | 54.87393 | 53.84646 | 28535 ft | 406 kts | 275° |
| 2026-04-30 11:56 | 54.88116 | 53.79890 | 28946 ft | 409 kts | 275° |
| 2026-04-30 11:56 | 54.88843 | 53.75093 | 29347 ft | 412 kts | 274° |
| 2026-04-30 11:56 | 54.89575 | 53.70248 | 29752 ft | 415 kts | 274° |
| 2026-04-30 11:57 | 54.90309 | 53.65391 | 30157 ft | 418 kts | 274° |
| 2026-04-30 11:57 | 54.91052 | 53.60471 | 30488 ft | 421 kts | 274° |
| 2026-04-30 11:57 | 54.91793 | 53.55545 | 30842 ft | 423 kts | 274° |
| 2026-04-30 11:57 | 54.92539 | 53.50576 | 31197 ft | 424 kts | 274° |
| 2026-04-30 11:58 | 54.93281 | 53.45612 | 31553 ft | 426 kts | 274° |
| 2026-04-30 11:58 | 54.94029 | 53.40598 | 31884 ft | 428 kts | 274° |
| 2026-04-30 11:58 | 54.94774 | 53.35583 | 32231 ft | 429 kts | 274° |
| 2026-04-30 11:58 | 54.95521 | 53.30546 | 32574 ft | 431 kts | 274° |
| 2026-04-30 11:59 | 54.96267 | 53.25474 | 32904 ft | 433 kts | 274° |
| 2026-04-30 11:59 | 54.97013 | 53.20386 | 33224 ft | 435 kts | 274° |
| 2026-04-30 11:59 | 54.97760 | 53.15271 | 33560 ft | 436 kts | 274° |
| 2026-04-30 11:59 | 54.98495 | 53.10235 | 34001 ft | 435 kts | 274° |
| 2026-04-30 12:00 | 54.99237 | 53.05127 | 34394 ft | 433 kts | 274° |
| 2026-04-30 12:00 | 54.99974 | 53.00028 | 34703 ft | 434 kts | 275° |
| 2026-04-30 12:00 | 55.00709 | 52.94934 | 35005 ft | 434 kts | 275° |
| 2026-04-30 12:00 | 55.01445 | 52.89811 | 35310 ft | 435 kts | 275° |
| 2026-04-30 12:01 | 55.02177 | 52.84710 | 35603 ft | 435 kts | 275° |
| 2026-04-30 12:01 | 55.02908 | 52.79594 | 35904 ft | 436 kts | 276° |
| 2026-04-30 12:01 | 55.03638 | 52.74467 | 36198 ft | 436 kts | 276° |
| 2026-04-30 12:01 | 55.04369 | 52.69320 | 36490 ft | 437 kts | 276° |
| 2026-04-30 12:02 | 55.05097 | 52.64177 | 36769 ft | 437 kts | 276° |
| 2026-04-30 12:02 | 55.05824 | 52.59024 | 37041 ft | 437 kts | 277° |
| 2026-04-30 12:02 | 55.06558 | 52.53807 | 37317 ft | 438 kts | 277° |
| 2026-04-30 12:02 | 55.07284 | 52.48630 | 37578 ft | 438 kts | 277° |
| 2026-04-30 12:03 | 55.07965 | 52.43760 | 37817 ft | 439 kts | 277° |
| 2026-04-30 12:03 | 55.09418 | 52.33300 | 38157 ft | 441 kts | 278° |
| 2026-04-30 12:04 | 55.10824 | 52.23115 | 38152 ft | 439 kts | 277° |
| 2026-04-30 12:04 | 55.12249 | 52.12722 | 38143 ft | 439 kts | 277° |
| 2026-04-30 12:05 | 55.13645 | 52.02479 | 38143 ft | 440 kts | 277° |
| 2026-04-30 12:05 | 55.15054 | 51.92055 | 38144 ft | 440 kts | 277° |
| 2026-04-30 12:06 | 55.16457 | 51.81615 | 38146 ft | 441 kts | 277° |
| 2026-04-30 12:06 | 55.17851 | 51.71160 | 38142 ft | 441 kts | 277° |
| 2026-04-30 12:07 | 55.19190 | 51.61053 | 38150 ft | 442 kts | 277° |
| 2026-04-30 12:07 | 55.20569 | 51.50563 | 38149 ft | 442 kts | 277° |
| 2026-04-30 12:08 | 55.21940 | 51.40062 | 38148 ft | 443 kts | 277° |
| 2026-04-30 12:08 | 55.23305 | 51.29527 | 38145 ft | 443 kts | 277° |
| 2026-04-30 12:09 | 55.24661 | 51.18990 | 38143 ft | 443 kts | 277° |
| 2026-04-30 12:09 | 55.26014 | 51.08423 | 38146 ft | 444 kts | 277° |
| 2026-04-30 12:10 | 55.27306 | 50.97833 | 38147 ft | 444 kts | 276° |
| 2026-04-30 12:10 | 55.28548 | 50.87210 | 38153 ft | 444 kts | 276° |
| 2026-04-30 12:11 | 55.29789 | 50.76576 | 38151 ft | 445 kts | 276° |
| 2026-04-30 12:11 | 55.31019 | 50.65938 | 38147 ft | 446 kts | 276° |
| 2026-04-30 12:12 | 55.32246 | 50.55252 | 38153 ft | 446 kts | 276° |
| 2026-04-30 12:12 | 55.33462 | 50.44568 | 38153 ft | 447 kts | 276° |
| 2026-04-30 12:13 | 55.34566 | 50.34783 | 38153 ft | 447 kts | 276° |
| 2026-04-30 12:13 | 55.35769 | 50.24052 | 38150 ft | 447 kts | 276° |
| 2026-04-30 12:14 | 55.36913 | 50.13754 | 38149 ft | 448 kts | 276° |
| 2026-04-30 12:14 | 55.38103 | 50.02967 | 38155 ft | 448 kts | 276° |
| 2026-04-30 12:15 | 55.38979 | 49.92142 | 38156 ft | 445 kts | 271° |
| 2026-04-30 12:15 | 55.39538 | 49.81402 | 38151 ft | 446 kts | 270° |
| 2026-04-30 12:16 | 55.40061 | 49.70845 | 38148 ft | 446 kts | 270° |
| 2026-04-30 12:16 | 55.40586 | 49.60027 | 38156 ft | 447 kts | 270° |
| 2026-04-30 12:17 | 55.41362 | 49.43651 | 38150 ft | 447 kts | 270° |
| 2026-04-30 12:17 | 55.41867 | 49.32735 | 38155 ft | 448 kts | 270° |
| 2026-04-30 12:18 | 55.42363 | 49.21787 | 38156 ft | 448 kts | 270° |
| 2026-04-30 12:18 | 55.42848 | 49.10845 | 38154 ft | 448 kts | 270° |
| 2026-04-30 12:19 | 55.43325 | 48.99871 | 38156 ft | 449 kts | 270° |
| 2026-04-30 12:19 | 55.43593 | 48.93620 | 38151 ft | 449 kts | 270° |
| 2026-04-30 12:20 | 55.44054 | 48.82639 | 38145 ft | 449 kts | 270° |
| 2026-04-30 12:20 | 55.44503 | 48.71733 | 38148 ft | 450 kts | 270° |
| 2026-04-30 12:21 | 55.44947 | 48.60722 | 38140 ft | 450 kts | 270° |
| 2026-04-30 12:21 | 55.45913 | 48.49814 | 38155 ft | 457 kts | 285° |
| 2026-04-30 12:22 | 55.47790 | 48.39086 | 38163 ft | 458 kts | 283° |
| 2026-04-30 12:22 | 55.49639 | 48.28342 | 38149 ft | 458 kts | 283° |
| 2026-04-30 12:23 | 55.51482 | 48.17635 | 38152 ft | 458 kts | 283° |
| 2026-04-30 12:23 | 55.53338 | 48.06793 | 38149 ft | 458 kts | 283° |
| 2026-04-30 12:24 | 55.55162 | 47.96069 | 38150 ft | 459 kts | 283° |
| 2026-04-30 12:24 | 55.56988 | 47.85276 | 38147 ft | 459 kts | 283° |
| 2026-04-30 12:25 | 55.58804 | 47.74471 | 38149 ft | 459 kts | 283° |
| 2026-04-30 12:25 | 55.60614 | 47.63638 | 38143 ft | 459 kts | 283° |
| 2026-04-30 12:26 | 55.62375 | 47.53027 | 38148 ft | 459 kts | 283° |
| 2026-04-30 12:26 | 55.63874 | 47.43945 | 38148 ft | 459 kts | 283° |
| 2026-04-30 12:27 | 55.65654 | 47.33104 | 38149 ft | 459 kts | 283° |
| 2026-04-30 12:27 | 55.67431 | 47.22217 | 38146 ft | 459 kts | 283° |
| 2026-04-30 12:28 | 55.69193 | 47.11346 | 38146 ft | 459 kts | 283° |
| 2026-04-30 12:28 | 55.70936 | 47.00541 | 38146 ft | 459 kts | 283° |
| 2026-04-30 12:29 | 55.72633 | 46.89951 | 38146 ft | 459 kts | 283° |
| 2026-04-30 12:29 | 55.74370 | 46.79043 | 38148 ft | 459 kts | 283° |
| 2026-04-30 12:30 | 55.76095 | 46.68139 | 38146 ft | 459 kts | 283° |
| 2026-04-30 12:30 | 55.77813 | 46.57212 | 38145 ft | 459 kts | 283° |
| 2026-04-30 12:31 | 55.79407 | 46.46245 | 38132 ft | 455 kts | 274° |
| 2026-04-30 12:31 | 55.79798 | 46.35123 | 38143 ft | 454 kts | 271° |
| 2026-04-30 12:32 | 55.80178 | 46.23916 | 38145 ft | 454 kts | 271° |
| 2026-04-30 12:32 | 55.80534 | 46.12704 | 38145 ft | 454 kts | 271° |
| 2026-04-30 12:33 | 55.80880 | 46.01456 | 38152 ft | 454 kts | 271° |
| 2026-04-30 12:33 | 55.81214 | 45.90285 | 38152 ft | 454 kts | 271° |
| 2026-04-30 12:34 | 55.81475 | 45.81316 | 38147 ft | 454 kts | 271° |
| 2026-04-30 12:34 | 55.81654 | 45.74995 | 38148 ft | 454 kts | 271° |
| 2026-04-30 12:35 | 55.81891 | 45.66481 | 38154 ft | 454 kts | 271° |
| 2026-04-30 12:35 | 55.82196 | 45.55188 | 38152 ft | 454 kts | 271° |
| 2026-04-30 12:36 | 55.82487 | 45.44027 | 38150 ft | 454 kts | 270° |
| 2026-04-30 12:36 | 55.82769 | 45.32808 | 38153 ft | 454 kts | 270° |
| 2026-04-30 12:37 | 55.83041 | 45.21586 | 38153 ft | 454 kts | 270° |
| 2026-04-30 12:37 | 55.83303 | 45.10368 | 38152 ft | 454 kts | 270° |
| 2026-04-30 12:38 | 55.83559 | 44.99143 | 38154 ft | 454 kts | 270° |
| 2026-04-30 12:38 | 55.83806 | 44.87910 | 38150 ft | 454 kts | 270° |
| 2026-04-30 12:39 | 55.84044 | 44.76688 | 38153 ft | 454 kts | 270° |
| 2026-04-30 12:39 | 55.84274 | 44.65460 | 38155 ft | 454 kts | 270° |
| 2026-04-30 12:40 | 55.84493 | 44.54216 | 38154 ft | 454 kts | 270° |
| 2026-04-30 12:40 | 55.84702 | 44.42963 | 38153 ft | 455 kts | 270° |
| 2026-04-30 12:41 | 55.84900 | 44.31712 | 38154 ft | 455 kts | 270° |
| 2026-04-30 12:41 | 55.85089 | 44.20462 | 38156 ft | 455 kts | 270° |
| 2026-04-30 12:42 | 55.85268 | 44.09199 | 38151 ft | 455 kts | 270° |
| 2026-04-30 12:42 | 55.85436 | 43.97921 | 38152 ft | 455 kts | 270° |
| 2026-04-30 12:43 | 55.85594 | 43.86661 | 38155 ft | 455 kts | 270° |
| 2026-04-30 12:43 | 55.85742 | 43.75402 | 38163 ft | 455 kts | 270° |
| 2026-04-30 12:44 | 55.85880 | 43.64071 | 38149 ft | 455 kts | 270° |
| 2026-04-30 12:44 | 55.85968 | 43.56611 | 38156 ft | 455 kts | 270° |